sensor_id;sensor_type;location;lat;lon;timestamp;temperature;humidity
997;DHT22;487;50.126;8.698;2023-05-10T04:01:47;13.90;1.00
997;DHT22;487;50.126;8.698;2023-05-10T04:04:15;13.90;1.00
997;DHT22;487;50.126;8.698;2023-05-10T04:06:45;13.90;1.00
997;DHT22;487;50.126;8.698;2023-05-10T04:09:13;13.90;1.00
997;DHT22;487;50.126;8.698;2023-05-10T04:11:41;13.90;1.00
997;DHT22;487;50.126;8.698;2023-05-10T04:14:08;13.90;1.00
997;DHT22;487;50.126;8.698;2023-05-10T04:16:36;14.00;1.00
997;DHT22;487;50.126;8.698;2023-05-10T04:19:05;14.10;1.00
997;DHT22;487;50.126;8.698;2023-05-10T04:21:33;14.00;1.00
997;DHT22;487;50.126;8.698;2023-05-10T04:24:01;14.10;1.00
997;DHT22;487;50.126;8.698;2023-05-10T04:26:29;14.00;1.00
997;DHT22;487;50.126;8.698;2023-05-10T04:28:57;14.10;1.00
997;DHT22;487;50.126;8.698;2023-05-10T04:31:25;14.20;1.00
997;DHT22;487;50.126;8.698;2023-05-10T04:33:54;14.20;1.00
997;DHT22;487;50.126;8.698;2023-05-10T04:36:23;14.30;1.00
997;DHT22;487;50.126;8.698;2023-05-10T04:38:51;14.20;1.00
997;DHT22;487;50.126;8.698;2023-05-10T04:43:48;14.20;1.00
997;DHT22;487;50.126;8.698;2023-05-10T04:46:16;14.30;1.00
997;DHT22;487;50.126;8.698;2023-05-10T04:48:44;14.20;1.00
997;DHT22;487;50.126;8.698;2023-05-10T04:51:12;14.30;1.00
997;DHT22;487;50.126;8.698;2023-05-10T04:53:41;14.40;1.00
997;DHT22;487;50.126;8.698;2023-05-10T04:56:23;14.30;1.00
997;DHT22;487;50.126;8.698;2023-05-10T04:58:51;14.20;1.00
997;DHT22;487;50.126;8.698;2023-05-10T05:01:18;14.30;1.00
997;DHT22;487;50.126;8.698;2023-05-10T05:03:46;14.40;1.00
997;DHT22;487;50.126;8.698;2023-05-10T05:06:14;14.40;1.00
997;DHT22;487;50.126;8.698;2023-05-10T05:08:43;14.40;1.00
997;DHT22;487;50.126;8.698;2023-05-10T05:13:39;14.30;1.00
997;DHT22;487;50.126;8.698;2023-05-10T05:16:07;14.30;1.00
997;DHT22;487;50.126;8.698;2023-05-10T05:18:35;14.20;1.00
997;DHT22;487;50.126;8.698;2023-05-10T05:21:03;14.20;1.00
997;DHT22;487;50.126;8.698;2023-05-10T05:23:30;14.20;1.00
997;DHT22;487;50.126;8.698;2023-05-10T05:26:00;14.20;1.00
997;DHT22;487;50.126;8.698;2023-05-10T05:28:28;14.30;1.00
997;DHT22;487;50.126;8.698;2023-05-10T05:30:59;14.30;1.00
997;DHT22;487;50.126;8.698;2023-05-10T05:33:27;14.40;1.00
997;DHT22;487;50.126;8.698;2023-05-10T05:35:54;14.40;1.00
997;DHT22;487;50.126;8.698;2023-05-10T05:40:51;14.40;1.00
997;DHT22;487;50.126;8.698;2023-05-10T05:43:20;14.40;1.00
997;DHT22;487;50.126;8.698;2023-05-10T05:45:48;14.50;1.00
997;DHT22;487;50.126;8.698;2023-05-10T05:48:15;14.60;1.00
997;DHT22;487;50.126;8.698;2023-05-10T05:50:43;14.60;1.00
997;DHT22;487;50.126;8.698;2023-05-10T05:53:12;14.70;1.00
997;DHT22;487;50.126;8.698;2023-05-10T05:55:39;14.60;1.00
997;DHT22;487;50.126;8.698;2023-05-10T06:00:37;14.60;1.00
997;DHT22;487;50.126;8.698;2023-05-10T06:03:04;14.70;1.00
997;DHT22;487;50.126;8.698;2023-05-10T06:05:33;14.60;1.00
997;DHT22;487;50.126;8.698;2023-05-10T06:08:01;14.60;1.00
997;DHT22;487;50.126;8.698;2023-05-10T06:10:29;14.60;1.00
997;DHT22;487;50.126;8.698;2023-05-10T06:12:57;14.60;1.00
997;DHT22;487;50.126;8.698;2023-05-10T06:15:25;14.60;1.00
997;DHT22;487;50.126;8.698;2023-05-10T06:17:54;14.60;1.00
997;DHT22;487;50.126;8.698;2023-05-10T06:25:18;14.20;1.00
997;DHT22;487;50.126;8.698;2023-05-10T06:27:46;14.10;1.00
997;DHT22;487;50.126;8.698;2023-05-10T06:30:19;14.00;1.00
997;DHT22;487;50.126;8.698;2023-05-10T06:32:49;14.10;1.00
997;DHT22;487;50.126;8.698;2023-05-10T06:35:18;14.10;1.00
997;DHT22;487;50.126;8.698;2023-05-10T06:37:46;14.10;1.00
997;DHT22;487;50.126;8.698;2023-05-10T06:42:42;14.40;1.00
997;DHT22;487;50.126;8.698;2023-05-10T06:45:11;14.50;1.00
997;DHT22;487;50.126;8.698;2023-05-10T06:47:40;14.50;1.00
997;DHT22;487;50.126;8.698;2023-05-10T06:52:39;14.70;1.00
997;DHT22;487;50.126;8.698;2023-05-10T06:55:07;14.80;1.00
997;DHT22;487;50.126;8.698;2023-05-10T06:57:36;14.90;1.00
997;DHT22;487;50.126;8.698;2023-05-10T07:00:04;14.90;1.00
997;DHT22;487;50.126;8.698;2023-05-10T07:02:33;14.90;1.00
997;DHT22;487;50.126;8.698;2023-05-10T07:05:00;15.00;1.00
997;DHT22;487;50.126;8.698;2023-05-10T07:07:29;14.90;1.00
997;DHT22;487;50.126;8.698;2023-05-10T07:09:59;14.90;1.00
997;DHT22;487;50.126;8.698;2023-05-10T07:14:55;14.90;1.00
997;DHT22;487;50.126;8.698;2023-05-10T07:17:23;14.90;99.90
997;DHT22;487;50.126;8.698;2023-05-10T07:19:51;14.80;99.90
997;DHT22;487;50.126;8.698;2023-05-10T07:22:19;14.90;99.90
997;DHT22;487;50.126;8.698;2023-05-10T07:24:47;15.00;99.90
997;DHT22;487;50.126;8.698;2023-05-10T07:27:16;15.00;99.90
997;DHT22;487;50.126;8.698;2023-05-10T07:32:12;14.90;99.90
997;DHT22;487;50.126;8.698;2023-05-10T07:34:40;15.00;99.90
997;DHT22;487;50.126;8.698;2023-05-10T07:39:36;15.00;99.90
997;DHT22;487;50.126;8.698;2023-05-10T07:42:04;15.00;99.90
997;DHT22;487;50.126;8.698;2023-05-10T07:44:33;15.00;99.90
997;DHT22;487;50.126;8.698;2023-05-10T07:47:01;15.10;99.90
997;DHT22;487;50.126;8.698;2023-05-10T07:49:29;15.10;99.90
997;DHT22;487;50.126;8.698;2023-05-10T07:54:25;15.20;99.90
997;DHT22;487;50.126;8.698;2023-05-10T07:56:53;15.10;99.90
997;DHT22;487;50.126;8.698;2023-05-10T07:59:20;15.30;99.90
997;DHT22;487;50.126;8.698;2023-05-10T08:01:50;15.40;99.90
997;DHT22;487;50.126;8.698;2023-05-10T08:04:17;15.40;99.90
997;DHT22;487;50.126;8.698;2023-05-10T08:06:45;15.50;99.90
997;DHT22;487;50.126;8.698;2023-05-10T08:09:13;15.50;99.90
997;DHT22;487;50.126;8.698;2023-05-10T08:11:41;15.60;99.90
997;DHT22;487;50.126;8.698;2023-05-10T08:14:09;15.60;99.90
997;DHT22;487;50.126;8.698;2023-05-10T08:16:37;15.60;99.90
997;DHT22;487;50.126;8.698;2023-05-10T08:19:06;15.70;99.90
997;DHT22;487;50.126;8.698;2023-05-10T08:21:34;15.50;99.90
997;DHT22;487;50.126;8.698;2023-05-10T08:26:33;15.90;99.90
997;DHT22;487;50.126;8.698;2023-05-10T08:29:01;16.00;99.90
997;DHT22;487;50.126;8.698;2023-05-10T08:31:29;16.10;99.90
997;DHT22;487;50.126;8.698;2023-05-10T08:33:57;16.20;99.90
997;DHT22;487;50.126;8.698;2023-05-10T08:36:26;16.20;99.90
997;DHT22;487;50.126;8.698;2023-05-10T08:38:54;16.20;99.90
997;DHT22;487;50.126;8.698;2023-05-10T08:41:22;16.20;99.90
997;DHT22;487;50.126;8.698;2023-05-10T08:43:53;16.20;99.90
997;DHT22;487;50.126;8.698;2023-05-10T08:46:22;16.40;99.90
997;DHT22;487;50.126;8.698;2023-05-10T08:48:51;16.40;99.90
997;DHT22;487;50.126;8.698;2023-05-10T08:51:20;16.50;99.90
997;DHT22;487;50.126;8.698;2023-05-10T08:53:51;16.30;99.90
997;DHT22;487;50.126;8.698;2023-05-10T08:56:20;16.10;99.90
997;DHT22;487;50.126;8.698;2023-05-10T08:58:48;16.00;99.90
997;DHT22;487;50.126;8.698;2023-05-10T09:01:16;15.90;99.90
997;DHT22;487;50.126;8.698;2023-05-10T09:03:46;15.70;99.90
997;DHT22;487;50.126;8.698;2023-05-10T09:06:15;15.70;99.90
997;DHT22;487;50.126;8.698;2023-05-10T09:08:43;15.70;99.90
997;DHT22;487;50.126;8.698;2023-05-10T09:11:13;15.80;99.90
997;DHT22;487;50.126;8.698;2023-05-10T09:13:41;15.80;99.90
997;DHT22;487;50.126;8.698;2023-05-10T09:16:10;15.80;99.90
997;DHT22;487;50.126;8.698;2023-05-10T09:18:47;15.90;99.90
997;DHT22;487;50.126;8.698;2023-05-10T09:21:16;16.00;99.90
997;DHT22;487;50.126;8.698;2023-05-10T09:23:44;16.10;99.90
997;DHT22;487;50.126;8.698;2023-05-10T09:26:16;16.10;99.90
997;DHT22;487;50.126;8.698;2023-05-10T09:28:51;16.20;99.90
997;DHT22;487;50.126;8.698;2023-05-10T09:31:19;16.10;99.90
997;DHT22;487;50.126;8.698;2023-05-10T09:33:48;16.20;99.90
997;DHT22;487;50.126;8.698;2023-05-10T09:36:17;16.20;99.90
997;DHT22;487;50.126;8.698;2023-05-10T09:38:45;16.20;99.90
997;DHT22;487;50.126;8.698;2023-05-10T09:41:19;16.30;99.90
997;DHT22;487;50.126;8.698;2023-05-10T09:43:48;16.40;99.90
997;DHT22;487;50.126;8.698;2023-05-10T09:46:16;16.30;99.90
997;DHT22;487;50.126;8.698;2023-05-10T09:48:45;16.30;99.90
997;DHT22;487;50.126;8.698;2023-05-10T09:51:19;16.40;99.90
997;DHT22;487;50.126;8.698;2023-05-10T09:53:48;16.40;99.90
997;DHT22;487;50.126;8.698;2023-05-10T09:56:33;16.60;99.90
997;DHT22;487;50.126;8.698;2023-05-10T09:59:02;16.80;99.90
997;DHT22;487;50.126;8.698;2023-05-10T10:01:30;17.00;99.90
997;DHT22;487;50.126;8.698;2023-05-10T10:03:58;17.10;99.90
997;DHT22;487;50.126;8.698;2023-05-10T10:06:26;17.20;99.90
997;DHT22;487;50.126;8.698;2023-05-10T10:08:56;17.20;99.90
997;DHT22;487;50.126;8.698;2023-05-10T10:11:24;17.10;99.90
997;DHT22;487;50.126;8.698;2023-05-10T10:13:53;17.00;99.90
997;DHT22;487;50.126;8.698;2023-05-10T10:16:22;16.90;99.90
997;DHT22;487;50.126;8.698;2023-05-10T10:18:50;16.90;99.90
997;DHT22;487;50.126;8.698;2023-05-10T10:21:19;17.00;99.90
997;DHT22;487;50.126;8.698;2023-05-10T10:23:47;16.80;99.90
997;DHT22;487;50.126;8.698;2023-05-10T10:26:15;16.70;99.90
997;DHT22;487;50.126;8.698;2023-05-10T10:28:49;16.60;99.90
997;DHT22;487;50.126;8.698;2023-05-10T10:31:27;16.40;99.90
997;DHT22;487;50.126;8.698;2023-05-10T10:34:03;16.40;99.90
997;DHT22;487;50.126;8.698;2023-05-10T10:36:33;16.60;99.90
997;DHT22;487;50.126;8.698;2023-05-10T10:39:09;16.60;99.90
997;DHT22;487;50.126;8.698;2023-05-10T10:41:39;16.70;99.90
997;DHT22;487;50.126;8.698;2023-05-10T10:44:24;16.80;99.90
997;DHT22;487;50.126;8.698;2023-05-10T10:47:07;16.80;99.90
997;DHT22;487;50.126;8.698;2023-05-10T10:49:42;16.80;99.90
997;DHT22;487;50.126;8.698;2023-05-10T10:52:22;16.80;99.90
997;DHT22;487;50.126;8.698;2023-05-10T10:54:57;16.70;99.90
997;DHT22;487;50.126;8.698;2023-05-10T10:57:25;16.50;99.90
997;DHT22;487;50.126;8.698;2023-05-10T11:00:18;16.60;99.90
997;DHT22;487;50.126;8.698;2023-05-10T11:02:49;16.40;99.90
997;DHT22;487;50.126;8.698;2023-05-10T11:05:35;16.30;99.90
997;DHT22;487;50.126;8.698;2023-05-10T11:08:09;16.30;99.90
997;DHT22;487;50.126;8.698;2023-05-10T11:10:37;16.40;99.90
997;DHT22;487;50.126;8.698;2023-05-10T11:13:06;16.50;99.90
997;DHT22;487;50.126;8.698;2023-05-10T11:15:35;16.50;99.90
997;DHT22;487;50.126;8.698;2023-05-10T11:18:18;16.40;99.90
997;DHT22;487;50.126;8.698;2023-05-10T11:20:50;16.40;99.90
997;DHT22;487;50.126;8.698;2023-05-10T11:23:18;16.40;99.90
997;DHT22;487;50.126;8.698;2023-05-10T11:25:48;16.40;99.90
997;DHT22;487;50.126;8.698;2023-05-10T11:28:17;16.40;99.90
997;DHT22;487;50.126;8.698;2023-05-10T11:30:46;16.60;99.90
997;DHT22;487;50.126;8.698;2023-05-10T11:33:19;16.40;99.90
997;DHT22;487;50.126;8.698;2023-05-10T11:35:47;16.60;99.90
997;DHT22;487;50.126;8.698;2023-05-10T11:38:15;16.70;99.90
997;DHT22;487;50.126;8.698;2023-05-10T11:40:43;16.90;99.90
997;DHT22;487;50.126;8.698;2023-05-10T11:43:11;16.90;99.90
997;DHT22;487;50.126;8.698;2023-05-10T11:45:40;17.00;99.90
997;DHT22;487;50.126;8.698;2023-05-10T11:48:08;17.00;99.90
997;DHT22;487;50.126;8.698;2023-05-10T11:50:38;17.00;99.90
997;DHT22;487;50.126;8.698;2023-05-10T11:53:06;17.00;99.90
997;DHT22;487;50.126;8.698;2023-05-10T11:55:34;17.10;99.90
997;DHT22;487;50.126;8.698;2023-05-10T11:58:02;17.00;99.90
997;DHT22;487;50.126;8.698;2023-05-10T12:00:30;17.00;99.90
997;DHT22;487;50.126;8.698;2023-05-10T12:03:00;17.10;99.90
997;DHT22;487;50.126;8.698;2023-05-10T12:05:32;17.10;99.90
997;DHT22;487;50.126;8.698;2023-05-10T12:08:14;17.10;99.90
997;DHT22;487;50.126;8.698;2023-05-10T12:10:43;17.00;99.90
997;DHT22;487;50.126;8.698;2023-05-10T12:13:11;17.00;99.90
997;DHT22;487;50.126;8.698;2023-05-10T12:15:40;17.00;99.90
997;DHT22;487;50.126;8.698;2023-05-10T12:18:09;17.00;99.90
997;DHT22;487;50.126;8.698;2023-05-10T12:20:38;17.10;99.90
997;DHT22;487;50.126;8.698;2023-05-10T12:23:08;17.30;99.90
997;DHT22;487;50.126;8.698;2023-05-10T12:25:38;17.40;99.90
997;DHT22;487;50.126;8.698;2023-05-10T12:28:08;17.50;99.90
997;DHT22;487;50.126;8.698;2023-05-10T12:30:37;17.60;99.90
997;DHT22;487;50.126;8.698;2023-05-10T12:33:10;17.80;99.90
997;DHT22;487;50.126;8.698;2023-05-10T12:35:45;17.90;99.90
997;DHT22;487;50.126;8.698;2023-05-10T12:38:26;18.10;99.90
997;DHT22;487;50.126;8.698;2023-05-10T12:40:57;18.40;99.90
997;DHT22;487;50.126;8.698;2023-05-10T12:43:26;18.60;99.90
997;DHT22;487;50.126;8.698;2023-05-10T12:45:54;18.80;99.90
997;DHT22;487;50.126;8.698;2023-05-10T12:48:22;18.70;99.90
997;DHT22;487;50.126;8.698;2023-05-10T12:50:49;18.80;99.90
997;DHT22;487;50.126;8.698;2023-05-10T12:53:17;18.80;99.90
997;DHT22;487;50.126;8.698;2023-05-10T12:55:45;18.90;99.90
997;DHT22;487;50.126;8.698;2023-05-10T12:58:14;18.80;99.90
997;DHT22;487;50.126;8.698;2023-05-10T13:01:01;18.70;99.90
997;DHT22;487;50.126;8.698;2023-05-10T13:05:57;18.70;99.90
997;DHT22;487;50.126;8.698;2023-05-10T13:08:25;18.70;99.90
997;DHT22;487;50.126;8.698;2023-05-10T13:10:53;18.70;99.90
997;DHT22;487;50.126;8.698;2023-05-10T13:13:22;18.80;99.90
997;DHT22;487;50.126;8.698;2023-05-10T13:15:50;18.90;99.90
997;DHT22;487;50.126;8.698;2023-05-10T13:18:18;19.10;99.90
997;DHT22;487;50.126;8.698;2023-05-10T13:20:46;19.10;99.90
997;DHT22;487;50.126;8.698;2023-05-10T13:25:42;19.00;99.90
997;DHT22;487;50.126;8.698;2023-05-10T13:28:10;19.10;99.90
997;DHT22;487;50.126;8.698;2023-05-10T13:30:39;19.20;99.90
997;DHT22;487;50.126;8.698;2023-05-10T13:33:06;18.90;99.90
997;DHT22;487;50.126;8.698;2023-05-10T13:38:02;18.20;99.90
997;DHT22;487;50.126;8.698;2023-05-10T13:40:30;18.30;99.90
997;DHT22;487;50.126;8.698;2023-05-10T13:42:58;18.20;99.90
997;DHT22;487;50.126;8.698;2023-05-10T13:47:55;18.10;99.90
997;DHT22;487;50.126;8.698;2023-05-10T13:52:52;18.60;99.90
997;DHT22;487;50.126;8.698;2023-05-10T13:55:20;18.70;99.90
997;DHT22;487;50.126;8.698;2023-05-10T13:57:48;18.70;99.90
997;DHT22;487;50.126;8.698;2023-05-10T14:00:16;18.70;99.90
997;DHT22;487;50.126;8.698;2023-05-10T14:02:44;18.90;99.90
997;DHT22;487;50.126;8.698;2023-05-10T14:05:13;18.70;99.90
997;DHT22;487;50.126;8.698;2023-05-10T14:07:41;18.60;99.90
997;DHT22;487;50.126;8.698;2023-05-10T14:12:38;18.70;99.90
997;DHT22;487;50.126;8.698;2023-05-10T14:15:06;18.70;99.90
997;DHT22;487;50.126;8.698;2023-05-10T14:17:36;18.70;99.90
997;DHT22;487;50.126;8.698;2023-05-10T14:20:06;18.50;99.90
997;DHT22;487;50.126;8.698;2023-05-10T14:22:35;18.50;99.90
997;DHT22;487;50.126;8.698;2023-05-10T14:25:03;18.60;99.90
997;DHT22;487;50.126;8.698;2023-05-10T14:27:31;18.50;99.90
997;DHT22;487;50.126;8.698;2023-05-10T14:29:59;18.60;99.90
997;DHT22;487;50.126;8.698;2023-05-10T14:32:27;18.60;99.90
997;DHT22;487;50.126;8.698;2023-05-10T14:34:55;18.80;99.90
997;DHT22;487;50.126;8.698;2023-05-10T14:39:52;19.10;99.90
997;DHT22;487;50.126;8.698;2023-05-10T14:44:48;19.20;99.90
997;DHT22;487;50.126;8.698;2023-05-10T14:47:16;19.10;99.90
997;DHT22;487;50.126;8.698;2023-05-10T14:49:46;19.00;99.90
997;DHT22;487;50.126;8.698;2023-05-10T14:52:13;19.00;99.90
997;DHT22;487;50.126;8.698;2023-05-10T14:54:42;19.10;99.90
997;DHT22;487;50.126;8.698;2023-05-10T14:57:11;19.20;99.90
997;DHT22;487;50.126;8.698;2023-05-10T14:59:39;19.10;99.90
997;DHT22;487;50.126;8.698;2023-05-10T15:02:07;19.20;99.90
997;DHT22;487;50.126;8.698;2023-05-10T15:04:37;19.40;99.90
997;DHT22;487;50.126;8.698;2023-05-10T15:07:05;19.40;99.90
997;DHT22;487;50.126;8.698;2023-05-10T15:09:33;19.50;99.90
997;DHT22;487;50.126;8.698;2023-05-10T15:12:01;19.60;99.90
997;DHT22;487;50.126;8.698;2023-05-10T15:14:30;19.60;99.90
997;DHT22;487;50.126;8.698;2023-05-10T15:16:59;19.50;99.90
997;DHT22;487;50.126;8.698;2023-05-10T15:19:27;19.50;99.90
997;DHT22;487;50.126;8.698;2023-05-10T15:21:55;19.60;99.90
997;DHT22;487;50.126;8.698;2023-05-10T15:24:23;19.50;99.90
997;DHT22;487;50.126;8.698;2023-05-10T15:26:51;19.50;99.90
997;DHT22;487;50.126;8.698;2023-05-10T15:29:19;19.60;99.90
997;DHT22;487;50.126;8.698;2023-05-10T15:31:49;19.50;99.90
997;DHT22;487;50.126;8.698;2023-05-10T15:34:18;19.60;99.90
997;DHT22;487;50.126;8.698;2023-05-10T15:36:46;19.70;99.90
997;DHT22;487;50.126;8.698;2023-05-10T15:39:13;19.50;99.90
997;DHT22;487;50.126;8.698;2023-05-10T15:44:09;19.10;99.90
997;DHT22;487;50.126;8.698;2023-05-10T15:46:37;19.20;99.90
997;DHT22;487;50.126;8.698;2023-05-10T15:49:07;19.10;99.90
997;DHT22;487;50.126;8.698;2023-05-10T15:51:35;19.10;99.90
997;DHT22;487;50.126;8.698;2023-05-10T15:54:03;19.10;99.90
997;DHT22;487;50.126;8.698;2023-05-10T15:56:34;18.90;99.90
997;DHT22;487;50.126;8.698;2023-05-10T15:59:02;18.70;99.90
997;DHT22;487;50.126;8.698;2023-05-10T16:01:31;18.60;99.90
997;DHT22;487;50.126;8.698;2023-05-10T16:03:59;18.70;99.90
997;DHT22;487;50.126;8.698;2023-05-10T16:06:29;18.60;99.90
997;DHT22;487;50.126;8.698;2023-05-10T16:08:57;18.40;99.90
997;DHT22;487;50.126;8.698;2023-05-10T16:11:24;18.40;99.90
997;DHT22;487;50.126;8.698;2023-05-10T16:13:52;18.40;99.90
997;DHT22;487;50.126;8.698;2023-05-10T16:18:49;18.30;99.90
997;DHT22;487;50.126;8.698;2023-05-10T16:21:18;18.50;99.90
997;DHT22;487;50.126;8.698;2023-05-10T16:23:47;18.40;99.90
997;DHT22;487;50.126;8.698;2023-05-10T16:26:15;18.50;99.90
997;DHT22;487;50.126;8.698;2023-05-10T16:28:43;18.50;99.90
997;DHT22;487;50.126;8.698;2023-05-10T16:31:11;18.50;99.90
997;DHT22;487;50.126;8.698;2023-05-10T16:33:39;18.50;99.90
997;DHT22;487;50.126;8.698;2023-05-10T16:36:07;18.50;99.90
997;DHT22;487;50.126;8.698;2023-05-10T16:38:35;18.50;99.90
997;DHT22;487;50.126;8.698;2023-05-10T16:41:04;18.50;99.90
997;DHT22;487;50.126;8.698;2023-05-10T16:43:32;18.50;99.90
997;DHT22;487;50.126;8.698;2023-05-10T16:46:00;18.50;99.90
997;DHT22;487;50.126;8.698;2023-05-10T16:48:28;18.50;99.90
997;DHT22;487;50.126;8.698;2023-05-10T16:50:56;18.60;99.90
997;DHT22;487;50.126;8.698;2023-05-10T16:53:24;18.50;99.90
997;DHT22;487;50.126;8.698;2023-05-10T16:55:52;18.50;99.90
997;DHT22;487;50.126;8.698;2023-05-10T16:58:21;18.60;99.90
997;DHT22;487;50.126;8.698;2023-05-10T17:00:49;18.60;99.90
997;DHT22;487;50.126;8.698;2023-05-10T17:03:17;18.80;99.90
997;DHT22;487;50.126;8.698;2023-05-10T17:05:45;18.80;99.90
997;DHT22;487;50.126;8.698;2023-05-10T17:08:13;18.80;99.90
997;DHT22;487;50.126;8.698;2023-05-10T17:10:40;18.70;99.90
997;DHT22;487;50.126;8.698;2023-05-10T17:13:08;18.70;99.90
997;DHT22;487;50.126;8.698;2023-05-10T17:15:38;18.80;99.90
997;DHT22;487;50.126;8.698;2023-05-10T17:18:06;18.80;99.90
997;DHT22;487;50.126;8.698;2023-05-10T17:20:36;18.80;99.90
997;DHT22;487;50.126;8.698;2023-05-10T17:23:04;18.80;99.90
997;DHT22;487;50.126;8.698;2023-05-10T17:25:33;18.40;99.90
997;DHT22;487;50.126;8.698;2023-05-10T17:28:01;18.50;99.90
997;DHT22;487;50.126;8.698;2023-05-10T17:30:30;18.50;99.90
997;DHT22;487;50.126;8.698;2023-05-10T17:33:00;18.60;99.90
997;DHT22;487;50.126;8.698;2023-05-10T17:35:28;19.00;99.90
997;DHT22;487;50.126;8.698;2023-05-10T17:37:57;19.20;99.90
997;DHT22;487;50.126;8.698;2023-05-10T17:40:25;19.20;99.90
997;DHT22;487;50.126;8.698;2023-05-10T17:42:53;19.40;99.90
997;DHT22;487;50.126;8.698;2023-05-10T17:47:50;22.30;99.90
997;DHT22;487;50.126;8.698;2023-05-10T17:50:19;19.70;99.90
997;DHT22;487;50.126;8.698;2023-05-10T17:52:47;19.80;99.90
997;DHT22;487;50.126;8.698;2023-05-10T17:55:15;19.90;99.90
997;DHT22;487;50.126;8.698;2023-05-10T17:57:43;19.90;99.90
997;DHT22;487;50.126;8.698;2023-05-10T18:00:12;19.90;99.90
997;DHT22;487;50.126;8.698;2023-05-10T18:02:41;19.90;99.90
997;DHT22;487;50.126;8.698;2023-05-10T18:05:09;19.90;99.90
997;DHT22;487;50.126;8.698;2023-05-10T18:07:39;19.90;99.90
997;DHT22;487;50.126;8.698;2023-05-10T18:10:07;19.80;99.90
997;DHT22;487;50.126;8.698;2023-05-10T18:12:35;19.80;99.90
997;DHT22;487;50.126;8.698;2023-05-10T18:15:04;19.60;99.90
997;DHT22;487;50.126;8.698;2023-05-10T18:17:32;19.60;99.90
997;DHT22;487;50.126;8.698;2023-05-10T18:20:00;19.60;99.90
997;DHT22;487;50.126;8.698;2023-05-10T18:22:28;19.50;99.90
997;DHT22;487;50.126;8.698;2023-05-10T18:24:57;19.40;99.90
997;DHT22;487;50.126;8.698;2023-05-10T18:27:25;19.30;99.90
997;DHT22;487;50.126;8.698;2023-05-10T18:29:53;19.30;99.90
997;DHT22;487;50.126;8.698;2023-05-10T18:32:22;19.30;99.90
997;DHT22;487;50.126;8.698;2023-05-10T18:34:50;19.30;99.90
997;DHT22;487;50.126;8.698;2023-05-10T18:37:21;19.20;99.90
997;DHT22;487;50.126;8.698;2023-05-10T18:39:49;19.00;99.90
997;DHT22;487;50.126;8.698;2023-05-10T18:42:19;19.00;99.90
997;DHT22;487;50.126;8.698;2023-05-10T18:44:54;18.90;99.90
997;DHT22;487;50.126;8.698;2023-05-10T18:47:22;18.90;99.90
997;DHT22;487;50.126;8.698;2023-05-10T18:49:52;18.80;99.90
997;DHT22;487;50.126;8.698;2023-05-10T18:52:22;18.70;99.90
997;DHT22;487;50.126;8.698;2023-05-10T18:54:49;18.70;99.90
997;DHT22;487;50.126;8.698;2023-05-10T18:57:19;18.60;99.90
997;DHT22;487;50.126;8.698;2023-05-10T18:59:47;18.60;99.90
997;DHT22;487;50.126;8.698;2023-05-10T19:25:11;17.70;99.90
997;DHT22;487;50.126;8.698;2023-05-10T19:27:39;17.50;99.90
997;DHT22;487;50.126;8.698;2023-05-10T19:30:10;17.50;99.90
997;DHT22;487;50.126;8.698;2023-05-10T19:32:38;17.40;99.90
997;DHT22;487;50.126;8.698;2023-05-10T19:35:09;17.30;99.90
997;DHT22;487;50.126;8.698;2023-05-10T19:37:38;17.30;99.90
997;DHT22;487;50.126;8.698;2023-05-10T19:40:14;17.40;99.90
997;DHT22;487;50.126;8.698;2023-05-10T19:42:42;17.30;99.90
997;DHT22;487;50.126;8.698;2023-05-10T19:45:13;17.30;99.90
997;DHT22;487;50.126;8.698;2023-05-10T19:47:41;17.40;99.90
997;DHT22;487;50.126;8.698;2023-05-10T19:50:09;17.40;99.90
997;DHT22;487;50.126;8.698;2023-05-10T19:52:39;17.50;99.90
997;DHT22;487;50.126;8.698;2023-05-10T19:55:07;17.40;99.90
997;DHT22;487;50.126;8.698;2023-05-10T19:57:35;17.50;99.90
997;DHT22;487;50.126;8.698;2023-05-10T20:00:04;17.60;99.90
997;DHT22;487;50.126;8.698;2023-05-10T20:02:33;17.60;99.90
997;DHT22;487;50.126;8.698;2023-05-10T20:05:01;17.60;99.90
997;DHT22;487;50.126;8.698;2023-05-10T20:07:29;17.70;99.90
997;DHT22;487;50.126;8.698;2023-05-10T20:09:57;17.60;99.90
997;DHT22;487;50.126;8.698;2023-05-10T20:12:25;17.20;99.90
997;DHT22;487;50.126;8.698;2023-05-10T20:14:53;17.60;99.90
997;DHT22;487;50.126;8.698;2023-05-10T20:17:21;17.50;99.90
997;DHT22;487;50.126;8.698;2023-05-10T20:19:50;17.40;99.90
997;DHT22;487;50.126;8.698;2023-05-10T20:22:18;17.30;99.90
997;DHT22;487;50.126;8.698;2023-05-10T20:24:46;17.20;99.90
997;DHT22;487;50.126;8.698;2023-05-10T20:27:14;17.20;99.90
997;DHT22;487;50.126;8.698;2023-05-10T20:29:41;17.00;99.90
997;DHT22;487;50.126;8.698;2023-05-10T20:32:09;17.00;99.90
997;DHT22;487;50.126;8.698;2023-05-10T20:34:37;16.90;99.90
997;DHT22;487;50.126;8.698;2023-05-10T20:37:06;16.80;99.90
997;DHT22;487;50.126;8.698;2023-05-10T20:39:34;16.80;99.90
997;DHT22;487;50.126;8.698;2023-05-10T20:42:02;16.80;99.90
997;DHT22;487;50.126;8.698;2023-05-10T20:44:31;16.50;99.90
997;DHT22;487;50.126;8.698;2023-05-10T20:46:59;16.50;99.90
997;DHT22;487;50.126;8.698;2023-05-10T20:49:28;16.50;99.90
997;DHT22;487;50.126;8.698;2023-05-10T20:51:55;16.40;99.90
997;DHT22;487;50.126;8.698;2023-05-10T20:54:26;16.30;99.90
997;DHT22;487;50.126;8.698;2023-05-10T20:56:54;16.40;99.90
997;DHT22;487;50.126;8.698;2023-05-10T20:59:21;16.40;99.90
997;DHT22;487;50.126;8.698;2023-05-10T21:01:49;16.40;99.90
997;DHT22;487;50.126;8.698;2023-05-10T21:04:17;16.40;99.90
997;DHT22;487;50.126;8.698;2023-05-10T21:06:45;16.30;99.90
997;DHT22;487;50.126;8.698;2023-05-10T21:09:13;16.30;99.90
997;DHT22;487;50.126;8.698;2023-05-10T21:11:43;16.40;99.90
997;DHT22;487;50.126;8.698;2023-05-10T21:14:11;16.40;99.90
997;DHT22;487;50.126;8.698;2023-05-10T21:16:39;16.30;99.90
997;DHT22;487;50.126;8.698;2023-05-10T21:19:07;16.30;99.90
997;DHT22;487;50.126;8.698;2023-05-10T21:21:35;16.30;99.90
997;DHT22;487;50.126;8.698;2023-05-10T21:24:03;16.30;99.90
997;DHT22;487;50.126;8.698;2023-05-10T21:26:31;16.30;99.90
997;DHT22;487;50.126;8.698;2023-05-10T21:29:01;16.30;99.90
997;DHT22;487;50.126;8.698;2023-05-10T21:31:31;16.30;99.90
997;DHT22;487;50.126;8.698;2023-05-10T21:33:59;16.30;99.90
997;DHT22;487;50.126;8.698;2023-05-10T21:36:27;16.30;99.90
997;DHT22;487;50.126;8.698;2023-05-10T21:38:55;16.30;99.90
997;DHT22;487;50.126;8.698;2023-05-10T21:41:22;16.30;99.90
997;DHT22;487;50.126;8.698;2023-05-10T21:43:50;16.30;99.90
997;DHT22;487;50.126;8.698;2023-05-10T21:46:20;16.40;99.90
997;DHT22;487;50.126;8.698;2023-05-10T21:48:48;16.40;99.90
997;DHT22;487;50.126;8.698;2023-05-10T21:51:15;16.30;99.90
997;DHT22;487;50.126;8.698;2023-05-10T21:53:43;16.30;99.90
997;DHT22;487;50.126;8.698;2023-05-10T21:56:11;16.30;99.90
997;DHT22;487;50.126;8.698;2023-05-10T21:58:39;16.30;99.90
997;DHT22;487;50.126;8.698;2023-05-10T22:01:07;16.30;99.90
997;DHT22;487;50.126;8.698;2023-05-10T22:03:36;16.20;99.90
997;DHT22;487;50.126;8.698;2023-05-10T22:06:05;16.10;99.90
997;DHT22;487;50.126;8.698;2023-05-10T22:08:33;16.10;99.90
997;DHT22;487;50.126;8.698;2023-05-10T22:11:01;16.10;99.90